This is the latest recevied weather packets stored in our database for station/object W1SCW. If no packets are shown the sender has not sent any weather packets the latest 10 day(s).
| Time | Temp. | Humidity | Pressure | Rain* | Wind** | Luminosity | Snow |
|---|---|---|---|---|---|---|---|
| 1777400466 | 32.78° C | 60% | 1011.5 hPa | 0 mm | - | 775 W/m² | - |
| 1777400162 | 32.22° C | 63% | 1011.7 hPa | 0 mm | - | 873 W/m² | - |
| 1777399859 | 31.67° C | 62% | 1011.7 hPa | 0 mm | - | 865 W/m² | - |
| 1777399556 | 32.78° C | 61% | 1011.8 hPa | 0 mm | - | 882 W/m² | - |
| 1777399253 | 32.22° C | 61% | 1011.8 hPa | 0 mm | - | 806 W/m² | - |
| 1777398951 | 31.67° C | 62% | 1011.9 hPa | 0 mm | - | 856 W/m² | - |
| 1777398648 | 32.78° C | 60% | 1011.8 hPa | 0 mm | - | 859 W/m² | - |
| 1777398344 | 31.67° C | 65% | 1012 hPa | 0 mm | - | 861 W/m² | - |
| 1777398041 | 32.22° C | 62% | 1012.1 hPa | 0 mm | - | 863 W/m² | - |
| 1777397737 | 31.67° C | 61% | 1012.2 hPa | 0 mm | - | 858 W/m² | - |
| 1777397429 | 32.22° C | 61% | 1012 hPa | 0 mm | - | 849 W/m² | - |
| 1777397124 | 31.67° C | 64% | 1012.4 hPa | 0 mm | - | 852 W/m² | - |
| 1777396822 | 31.67° C | 63% | 1012.3 hPa | 0 mm | - | 826 W/m² | - |
| 1777396518 | 31.67° C | 63% | 1012.1 hPa | 0 mm | - | 841 W/m² | - |
| 1777396215 | 31.67° C | 62% | 1012.2 hPa | 0 mm | - | 836 W/m² | - |
| 1777395910 | 31.11° C | 62% | 1012.1 hPa | 0 mm | - | 803 W/m² | - |
| 1777395606 | 31.11° C | 64% | 1012.3 hPa | 0 mm | - | 817 W/m² | - |
| 1777395302 | 31.67° C | 63% | 1012.3 hPa | 0 mm | - | 809 W/m² | - |
| 1777395000 | 31.11° C | 63% | 1012.4 hPa | 0 mm | - | 803 W/m² | - |
| 1777394697 | 31.11° C | 64% | 1012.4 hPa | 0 mm | - | 790 W/m² | - |
| 1777394394 | 31.11° C | 66% | 1012.4 hPa | 0 mm | - | 788 W/m² | - |
| 1777394090 | 31.11° C | 65% | 1012.4 hPa | 0 mm | - | 780 W/m² | - |
| 1777393785 | 30.56° C | 66% | 1012.4 hPa | 0 mm | - | 770 W/m² | - |
| 1777393484 | 30.56° C | 68% | 1012.3 hPa | 0 mm | - | 757 W/m² | - |
| 1777393181 | 31.11° C | 65% | 1012.4 hPa | 0 mm | - | 751 W/m² | - |
* Rain latest hour (hover to see other rain measurements)
** Current wind speed in m/s (hover to see current wind gust speed)